createdAt,value
2019-01-15T00:00:04.870Z,975.34
2019-01-15T00:01:04.937Z,975.29
2019-01-15T00:02:05.233Z,975.01
2019-01-15T00:03:05.400Z,975.18
2019-01-15T00:04:05.379Z,975.12
2019-01-15T00:05:04.910Z,975.18
2019-01-15T00:06:04.925Z,975.29
2019-01-15T00:07:04.534Z,975.18
2019-01-15T00:08:04.996Z,975.21
2019-01-15T00:09:05.366Z,975.21
2019-01-15T00:10:05.236Z,975.24
2019-01-15T00:11:04.551Z,975.21
2019-01-15T00:12:08.396Z,975.21
2019-01-15T00:13:04.919Z,975.39
2019-01-15T00:14:05.432Z,975.26
2019-01-15T00:15:04.853Z,975.32
2019-01-15T00:16:05.259Z,975.26
2019-01-15T00:17:04.777Z,975.29
2019-01-15T00:18:04.862Z,975.29
2019-01-15T00:19:04.601Z,975.18
2019-01-15T00:20:04.705Z,975.18
2019-01-15T00:21:05.366Z,975.15
2019-01-15T00:22:04.798Z,975.21
2019-01-15T00:23:04.933Z,975.12
2019-01-15T00:24:05.373Z,975.15
2019-01-15T00:25:04.819Z,975.26
2019-01-15T00:26:05.319Z,975.32
2019-01-15T00:27:04.565Z,975.15
2019-01-15T00:28:04.835Z,975.29
2019-01-15T00:29:09.885Z,975.26
2019-01-15T00:30:05.302Z,975.18
2019-01-15T00:31:04.655Z,975.45
2019-01-15T00:32:04.791Z,975.36
2019-01-15T00:33:05.067Z,975.29
2019-01-15T00:34:05.345Z,975.32
2019-01-15T00:35:04.702Z,975.33
2019-01-15T00:36:05.285Z,975.32
2019-01-15T00:37:05.317Z,975.29
2019-01-15T00:38:05.462Z,975.33
2019-01-15T00:39:04.734Z,975.32
2019-01-15T00:40:05.395Z,975.36
2019-01-15T00:41:04.829Z,975.33
2019-01-15T00:42:05.114Z,975.42
2019-01-15T00:43:05.468Z,975.39
2019-01-15T00:44:04.620Z,975.33
2019-01-15T00:45:04.692Z,975.33
2019-01-15T00:46:05.163Z,975.36
2019-01-15T00:47:05.119Z,975.47
2019-01-15T00:48:04.790Z,975.44
2019-01-15T00:49:04.798Z,975.44
2019-01-15T00:50:05.032Z,975.47
2019-01-15T00:51:05.254Z,975.42
2019-01-15T00:52:05.397Z,975.44
2019-01-15T00:53:05.243Z,975.42
2019-01-15T00:54:05.347Z,975.55
2019-01-15T00:55:04.592Z,975.29
2019-01-15T00:56:05.001Z,975.56
2019-01-15T00:57:04.615Z,975.41
2019-01-15T00:58:05.079Z,975.44
2019-01-15T00:59:04.653Z,975.58
2019-01-15T01:00:04.809Z,975.39
2019-01-15T01:01:04.891Z,975.58
2019-01-15T01:02:05.190Z,975.58
2019-01-15T01:03:05.524Z,975.50
2019-01-15T01:04:05.434Z,975.61
2019-01-15T01:05:05.431Z,975.64
2019-01-15T01:06:05.070Z,975.52
2019-01-15T01:07:05.178Z,975.61
2019-01-15T01:08:05.320Z,975.66
2019-01-15T01:09:05.278Z,975.72
2019-01-15T01:10:05.377Z,975.78
2019-01-15T01:11:05.128Z,975.69
2019-01-15T01:12:05.168Z,975.78
2019-01-15T01:13:05.561Z,975.83
2019-01-15T01:14:04.963Z,975.64
2019-01-15T01:15:05.072Z,975.69
2019-01-15T01:16:05.009Z,975.72
2019-01-15T01:17:05.368Z,975.64
2019-01-15T01:18:05.338Z,975.72
2019-01-15T01:19:05.323Z,975.64
2019-01-15T01:20:05.558Z,975.72
2019-01-15T01:21:05.615Z,975.64
2019-01-15T01:22:05.417Z,975.61
2019-01-15T01:23:04.875Z,975.78
2019-01-15T01:24:04.848Z,975.64
2019-01-15T01:25:05.054Z,975.69
2019-01-15T01:26:05.065Z,975.69
2019-01-15T01:27:05.482Z,975.64
2019-01-15T01:28:04.922Z,975.69
2019-01-15T01:29:05.032Z,975.69
2019-01-15T01:30:05.251Z,975.75
2019-01-15T01:31:04.651Z,975.72
2019-01-15T01:32:04.625Z,975.66
2019-01-15T01:33:05.575Z,975.66
2019-01-15T01:34:04.957Z,975.58
2019-01-15T01:35:04.968Z,975.72
2019-01-15T01:36:05.060Z,975.64
2019-01-15T01:37:05.099Z,975.83
2019-01-15T01:38:04.864Z,975.50
2019-01-15T01:39:05.035Z,975.75
2019-01-15T01:40:05.049Z,975.61
2019-01-15T01:41:05.141Z,975.61
2019-01-15T01:42:05.260Z,975.58
2019-01-15T01:43:05.383Z,975.61
2019-01-15T01:44:05.467Z,975.64
2019-01-15T01:45:05.421Z,975.72
2019-01-15T01:46:10.455Z,975.55
2019-01-15T01:47:04.947Z,975.75
2019-01-15T01:48:04.995Z,975.80
2019-01-15T01:49:05.263Z,975.69
2019-01-15T01:50:05.309Z,975.91
2019-01-15T01:51:05.066Z,975.80
2019-01-15T01:52:05.242Z,975.86
2019-01-15T01:53:05.117Z,975.69
2019-01-15T01:54:04.573Z,975.80
2019-01-15T01:55:05.351Z,975.83
2019-01-15T01:56:05.463Z,975.80
2019-01-15T01:57:05.531Z,975.88
2019-01-15T01:58:05.056Z,975.88
2019-01-15T01:59:05.058Z,975.94
2019-01-15T02:00:05.111Z,975.91
2019-01-15T02:01:05.329Z,975.91
2019-01-15T02:02:04.877Z,975.83
2019-01-15T02:03:04.916Z,975.83
2019-01-15T02:04:05.346Z,975.77
2019-01-15T02:05:05.575Z,975.94
2019-01-15T02:06:04.638Z,975.94
2019-01-15T02:07:04.739Z,976.02
2019-01-15T02:08:04.842Z,975.96
2019-01-15T02:09:05.252Z,976.05
2019-01-15T02:10:04.887Z,976.02
2019-01-15T02:11:05.029Z,975.91
2019-01-15T02:12:05.342Z,975.96
2019-01-15T02:13:04.896Z,975.85
2019-01-15T02:14:05.008Z,976.16
2019-01-15T02:15:05.379Z,976.07
2019-01-15T02:16:04.712Z,976.10
2019-01-15T02:17:04.815Z,976.10
2019-01-15T02:18:05.053Z,975.94
2019-01-15T02:19:04.651Z,976.05
2019-01-15T02:20:05.255Z,976.05
2019-01-15T02:21:05.356Z,976.07
2019-01-15T02:22:05.381Z,976.10
2019-01-15T02:23:05.577Z,976.21
2019-01-15T02:24:04.901Z,976.16
2019-01-15T02:25:05.035Z,976.13
2019-01-15T02:26:05.269Z,976.10
2019-01-15T02:27:05.299Z,976.19
2019-01-15T02:28:04.593Z,976.24
2019-01-15T02:29:10.389Z,976.24
2019-01-15T02:30:04.825Z,976.30
2019-01-15T02:31:05.268Z,976.24
2019-01-15T02:32:05.301Z,976.24
2019-01-15T02:33:05.487Z,976.24
2019-01-15T02:34:04.981Z,976.16
2019-01-15T02:35:05.029Z,976.13
2019-01-15T02:36:05.028Z,976.07
2019-01-15T02:37:04.617Z,976.24
2019-01-15T02:38:04.632Z,976.21
2019-01-15T02:39:05.384Z,976.10
2019-01-15T02:40:04.785Z,976.16
2019-01-15T02:41:05.868Z,976.24
2019-01-15T02:42:05.374Z,976.16
2019-01-15T02:43:04.594Z,976.07
2019-01-15T02:44:04.692Z,975.99
2019-01-15T02:45:04.940Z,976.07
2019-01-15T02:46:04.935Z,976.05
2019-01-15T02:47:04.558Z,976.24
2019-01-15T02:48:05.045Z,976.16
2019-01-15T02:49:04.686Z,976.18
2019-01-15T02:50:04.612Z,976.18
2019-01-15T02:51:04.714Z,976.18
2019-01-15T02:52:04.923Z,976.16
2019-01-15T02:53:05.028Z,976.18
2019-01-15T02:54:05.204Z,976.21
2019-01-15T02:55:04.551Z,976.18
2019-01-15T02:56:04.733Z,976.13
2019-01-15T02:57:04.571Z,976.10
2019-01-15T02:58:05.018Z,976.29
2019-01-15T02:59:05.344Z,976.38
2019-01-15T03:00:04.911Z,976.21
2019-01-15T03:01:05.086Z,976.27
2019-01-15T03:02:05.350Z,976.24
2019-01-15T03:03:04.672Z,976.18
2019-01-15T03:04:04.741Z,976.27
2019-01-15T03:05:04.763Z,976.13
2019-01-15T03:06:05.355Z,976.13
2019-01-15T03:07:04.914Z,976.24
2019-01-15T03:08:05.119Z,976.13
2019-01-15T03:09:04.736Z,976.24
2019-01-15T03:10:04.802Z,976.29
2019-01-15T03:11:05.361Z,976.24
2019-01-15T03:12:04.666Z,976.18
2019-01-15T03:13:05.019Z,976.24
2019-01-15T03:14:05.227Z,976.21
2019-01-15T03:15:05.336Z,976.10
2019-01-15T03:16:05.495Z,976.18
2019-01-15T03:17:04.703Z,976.13
2019-01-15T03:18:04.770Z,976.13
2019-01-15T03:19:04.966Z,976.07
2019-01-15T03:20:05.080Z,976.13
2019-01-15T03:21:04.504Z,976.07
2019-01-15T03:22:04.537Z,976.24
2019-01-15T03:23:05.249Z,976.18
2019-01-15T03:24:05.396Z,976.18
2019-01-15T03:25:05.442Z,976.24
2019-01-15T03:26:04.709Z,976.18
2019-01-15T03:27:04.701Z,976.24
2019-01-15T03:28:04.755Z,976.29
2019-01-15T03:29:09.919Z,976.43
2019-01-15T03:30:05.266Z,976.21
2019-01-15T03:31:07.126Z,976.35
2019-01-15T03:32:06.749Z,976.18
2019-01-15T03:33:05.413Z,976.12
2019-01-15T03:34:05.407Z,976.24
2019-01-15T03:35:04.992Z,976.07
2019-01-15T03:36:05.306Z,976.21
2019-01-15T03:37:04.754Z,976.18
2019-01-15T03:38:04.654Z,976.12
2019-01-15T03:39:04.606Z,976.18
2019-01-15T03:40:04.754Z,976.15
2019-01-15T03:41:05.452Z,976.24
2019-01-15T03:42:05.490Z,976.10
2019-01-15T03:43:05.482Z,976.10
2019-01-15T03:44:05.106Z,976.12
2019-01-15T03:45:05.515Z,976.29
2019-01-15T03:46:05.440Z,976.18
2019-01-15T03:47:05.450Z,976.10
2019-01-15T03:48:05.513Z,976.24
2019-01-15T03:49:04.630Z,976.18
2019-01-15T03:50:04.873Z,976.12
2019-01-15T03:51:04.969Z,976.07
2019-01-15T03:52:05.155Z,976.04
2019-01-15T03:53:05.212Z,976.01
2019-01-15T03:54:04.919Z,975.96
2019-01-15T03:55:04.552Z,975.96
2019-01-15T03:56:05.343Z,976.01
2019-01-15T03:57:05.455Z,975.90
2019-01-15T03:58:05.469Z,975.99
2019-01-15T03:59:04.693Z,976.04
2019-01-15T04:00:04.688Z,976.10
2019-01-15T04:01:06.086Z,976.10
2019-01-15T04:02:04.773Z,976.10
2019-01-15T04:03:04.580Z,976.04
2019-01-15T04:04:04.963Z,976.21
2019-01-15T04:05:05.385Z,976.07
2019-01-15T04:06:04.529Z,976.13
2019-01-15T04:07:04.627Z,976.10
2019-01-15T04:08:04.566Z,976.29
2019-01-15T04:09:05.113Z,976.15
2019-01-15T04:10:05.342Z,976.15
2019-01-15T04:11:05.051Z,976.32
2019-01-15T04:12:05.336Z,976.35
2019-01-15T04:13:11.805Z,976.26
2019-01-15T04:14:05.392Z,976.32
2019-01-15T04:15:04.538Z,976.32
2019-01-15T04:16:04.955Z,976.18
2019-01-15T04:17:05.401Z,976.24
2019-01-15T04:18:04.572Z,976.24
2019-01-15T04:19:04.860Z,976.35
2019-01-15T04:20:05.096Z,976.38
2019-01-15T04:21:05.404Z,976.35
2019-01-15T04:22:04.629Z,976.38
2019-01-15T04:23:04.713Z,976.40
2019-01-15T04:24:04.880Z,976.26
2019-01-15T04:25:04.831Z,976.43
2019-01-15T04:26:05.413Z,976.38
2019-01-15T04:27:04.801Z,976.49
2019-01-15T04:28:04.916Z,976.29
2019-01-15T04:29:14.813Z,976.40
2019-01-15T04:30:05.181Z,976.63
2019-01-15T04:31:05.346Z,976.29
2019-01-15T04:32:04.706Z,976.35
2019-01-15T04:33:04.796Z,976.41
2019-01-15T04:34:04.810Z,976.38
2019-01-15T04:35:04.927Z,976.35
2019-01-15T04:36:05.033Z,976.41
2019-01-15T04:37:05.444Z,976.24
2019-01-15T04:38:05.258Z,976.35
2019-01-15T04:39:05.419Z,976.35
2019-01-15T04:40:04.511Z,976.29
2019-01-15T04:41:04.941Z,976.18
2019-01-15T04:42:05.319Z,976.32
2019-01-15T04:43:05.476Z,976.35
2019-01-15T04:44:04.744Z,976.46
2019-01-15T04:45:04.556Z,976.46
2019-01-15T04:46:04.630Z,976.27
2019-01-15T04:47:05.193Z,976.27
2019-01-15T04:48:05.537Z,976.32
2019-01-15T04:49:04.859Z,976.21
2019-01-15T04:50:05.112Z,976.29
2019-01-15T04:51:05.206Z,976.43
2019-01-15T04:52:05.327Z,976.35
2019-01-15T04:53:05.418Z,976.38
2019-01-15T04:54:05.502Z,976.38
2019-01-15T04:55:04.482Z,976.27
2019-01-15T04:56:04.706Z,976.21
2019-01-15T04:57:04.923Z,976.21
2019-01-15T04:58:05.131Z,976.29
2019-01-15T04:59:04.502Z,976.24
2019-01-15T05:00:04.619Z,976.24
2019-01-15T05:01:04.883Z,976.29
2019-01-15T05:02:04.524Z,976.24
2019-01-15T05:03:04.844Z,976.15
2019-01-15T05:04:05.064Z,976.13
2019-01-15T05:05:04.631Z,976.32
2019-01-15T05:06:04.596Z,976.26
2019-01-15T05:07:04.948Z,976.10
2019-01-15T05:08:04.947Z,976.35
2019-01-15T05:09:05.470Z,976.21
2019-01-15T05:10:04.794Z,976.24
2019-01-15T05:11:05.262Z,976.18
2019-01-15T05:12:05.127Z,976.15
2019-01-15T05:13:05.223Z,976.21
2019-01-15T05:14:04.591Z,976.24
2019-01-15T05:15:04.787Z,976.21
2019-01-15T05:16:04.784Z,976.24
2019-01-15T05:17:04.813Z,976.18
2019-01-15T05:18:04.965Z,976.35
2019-01-15T05:19:05.012Z,976.13
2019-01-15T05:20:05.129Z,976.10
2019-01-15T05:21:05.164Z,976.27
2019-01-15T05:22:05.403Z,976.24
2019-01-15T05:23:05.474Z,976.29
2019-01-15T05:24:04.502Z,976.13
2019-01-15T05:25:05.533Z,976.38
2019-01-15T05:26:05.514Z,976.29
2019-01-15T05:27:04.692Z,976.29
2019-01-15T05:28:05.373Z,976.38
2019-01-15T05:29:10.389Z,976.29
2019-01-15T05:30:04.791Z,976.40
2019-01-15T05:31:05.081Z,976.57
2019-01-15T05:32:05.181Z,976.40
2019-01-15T05:33:04.677Z,976.46
2019-01-15T05:34:05.161Z,976.49
2019-01-15T05:35:05.478Z,976.52
2019-01-15T05:36:05.424Z,976.57
2019-01-15T05:37:04.651Z,976.57
2019-01-15T05:38:04.647Z,976.63
2019-01-15T05:39:04.824Z,976.71
2019-01-15T05:40:04.480Z,976.57
2019-01-15T05:41:04.676Z,976.57
2019-01-15T05:42:04.898Z,976.74
2019-01-15T05:43:05.302Z,976.78
2019-01-15T05:44:05.383Z,976.66
2019-01-15T05:45:05.513Z,976.78
2019-01-15T05:46:04.482Z,976.57
2019-01-15T05:47:05.108Z,976.65
2019-01-15T05:48:05.339Z,976.52
2019-01-15T05:49:05.564Z,976.57
2019-01-15T05:50:04.661Z,976.52
2019-01-15T05:51:05.021Z,976.60
2019-01-15T05:52:05.056Z,976.57
2019-01-15T05:53:04.534Z,976.57
2019-01-15T05:54:04.720Z,976.43
2019-01-15T05:55:05.278Z,976.49
2019-01-15T05:56:04.613Z,976.54
2019-01-15T05:57:05.192Z,976.49
2019-01-15T05:58:05.419Z,976.65
2019-01-15T05:59:05.445Z,976.52
2019-01-15T06:00:04.944Z,976.54
2019-01-15T06:01:05.017Z,976.57
2019-01-15T06:02:05.026Z,976.49
2019-01-15T06:03:05.632Z,976.63
2019-01-15T06:04:04.950Z,976.54
2019-01-15T06:05:04.672Z,976.57
2019-01-15T06:06:04.700Z,976.52
2019-01-15T06:07:04.847Z,976.57
2019-01-15T06:08:05.026Z,976.49
2019-01-15T06:09:05.018Z,976.57
2019-01-15T06:10:05.037Z,976.52
2019-01-15T06:11:05.241Z,976.38
2019-01-15T06:12:05.222Z,976.52
2019-01-15T06:13:05.421Z,976.46
2019-01-15T06:14:05.420Z,976.60
2019-01-15T06:15:05.424Z,976.52
2019-01-15T06:16:05.334Z,976.49
2019-01-15T06:17:05.595Z,976.54
2019-01-15T06:18:04.482Z,976.63
2019-01-15T06:19:04.720Z,976.57
2019-01-15T06:20:04.997Z,976.54
2019-01-15T06:21:05.255Z,976.54
2019-01-15T06:22:04.821Z,976.66
2019-01-15T06:23:05.081Z,976.68
2019-01-15T06:24:05.357Z,976.54
2019-01-15T06:25:05.441Z,976.63
2019-01-15T06:26:04.861Z,976.57
2019-01-15T06:27:04.972Z,976.52
2019-01-15T06:28:04.899Z,976.52
2019-01-15T06:29:10.545Z,976.38
2019-01-15T06:30:05.054Z,976.43
2019-01-15T06:31:05.072Z,976.57
2019-01-15T06:32:04.593Z,976.43
2019-01-15T06:33:04.953Z,976.46
2019-01-15T06:34:05.290Z,976.52
2019-01-15T06:35:05.351Z,976.38
2019-01-15T06:36:04.672Z,976.41
2019-01-15T06:37:05.002Z,976.35
2019-01-15T06:38:04.716Z,976.41
2019-01-15T06:39:04.926Z,976.44
2019-01-15T06:40:05.409Z,976.52
2019-01-15T06:41:04.574Z,976.49
2019-01-15T06:42:05.125Z,976.49
2019-01-15T06:43:05.143Z,976.57
2019-01-15T06:44:05.238Z,976.69
2019-01-15T06:45:05.381Z,976.60
2019-01-15T06:46:04.561Z,976.58
2019-01-15T06:47:04.582Z,976.74
2019-01-15T06:48:04.707Z,976.38
2019-01-15T06:49:05.311Z,976.57
2019-01-15T06:50:05.477Z,976.69
2019-01-15T06:51:04.733Z,976.44
2019-01-15T06:52:05.069Z,976.57
2019-01-15T06:53:10.097Z,976.57
2019-01-15T06:54:05.380Z,976.63
2019-01-15T06:55:05.335Z,976.58
2019-01-15T06:56:04.905Z,976.60
2019-01-15T06:57:05.050Z,976.63
2019-01-15T06:58:05.112Z,976.66
2019-01-15T06:59:05.211Z,976.69
2019-01-15T07:00:04.687Z,976.57
2019-01-15T07:01:05.102Z,976.79
2019-01-15T07:02:05.109Z,976.52
2019-01-15T07:03:05.328Z,976.63
2019-01-15T07:04:05.332Z,976.69
2019-01-15T07:05:05.480Z,976.87
2019-01-15T07:06:04.650Z,976.84
2019-01-15T07:07:05.239Z,976.82
2019-01-15T07:08:05.317Z,976.79
2019-01-15T07:09:05.555Z,976.71
2019-01-15T07:10:05.510Z,976.74
2019-01-15T07:11:04.736Z,976.71
2019-01-15T07:12:04.848Z,976.60
2019-01-15T07:13:04.708Z,976.79
2019-01-15T07:14:04.909Z,976.79
2019-01-15T07:15:04.886Z,976.79
2019-01-15T07:16:05.418Z,976.82
2019-01-15T07:17:05.285Z,976.84
2019-01-15T07:18:05.346Z,976.76
2019-01-15T07:19:05.389Z,976.79
2019-01-15T07:20:04.585Z,976.82
2019-01-15T07:21:05.159Z,976.90
2019-01-15T07:22:05.233Z,976.84
2019-01-15T07:23:05.317Z,976.82
2019-01-15T07:24:05.574Z,976.76
2019-01-15T07:25:04.708Z,976.82
2019-01-15T07:26:04.646Z,976.93
2019-01-15T07:27:04.773Z,976.71
2019-01-15T07:28:04.905Z,976.90
2019-01-15T07:29:10.140Z,976.84
2019-01-15T07:30:04.559Z,976.79
2019-01-15T07:31:04.713Z,976.82
2019-01-15T07:32:04.996Z,976.98
2019-01-15T07:33:05.256Z,976.74
2019-01-15T07:34:05.511Z,976.84
2019-01-15T07:35:05.216Z,976.84
2019-01-15T07:36:05.305Z,976.74
2019-01-15T07:37:04.641Z,976.84
2019-01-15T07:38:04.807Z,976.79
2019-01-15T07:39:04.736Z,976.74
2019-01-15T07:40:05.006Z,976.52
2019-01-15T07:41:04.881Z,976.76
2019-01-15T07:42:05.420Z,976.68
2019-01-15T07:43:05.423Z,976.74
2019-01-15T07:44:05.341Z,976.68
2019-01-15T07:45:04.704Z,976.81
2019-01-15T07:46:05.266Z,976.78
2019-01-15T07:47:04.690Z,976.71
2019-01-15T07:48:05.158Z,976.84
2019-01-15T07:49:05.166Z,976.68
2019-01-15T07:50:05.351Z,976.74
2019-01-15T07:51:05.234Z,976.74
2019-01-15T07:52:05.384Z,976.74
2019-01-15T07:53:05.512Z,976.74
2019-01-15T07:54:04.730Z,976.89
2019-01-15T07:55:04.984Z,976.75
2019-01-15T07:56:04.657Z,976.84
2019-01-15T07:57:05.400Z,976.89
2019-01-15T07:58:05.426Z,976.84
2019-01-15T07:59:05.375Z,976.74
2019-01-15T08:00:04.521Z,976.71
2019-01-15T08:01:09.803Z,976.92
2019-01-15T08:02:05.151Z,976.84
2019-01-15T08:03:05.159Z,976.83
2019-01-15T08:04:04.795Z,976.89
2019-01-15T08:05:05.056Z,976.83
2019-01-15T08:06:05.032Z,976.81
2019-01-15T08:07:04.962Z,976.81
2019-01-15T08:08:05.034Z,976.73
2019-01-15T08:09:04.502Z,976.80
2019-01-15T08:10:04.584Z,976.78
2019-01-15T08:11:04.919Z,976.77
2019-01-15T08:12:05.015Z,976.94
2019-01-15T08:13:05.271Z,976.83
2019-01-15T08:14:12.421Z,976.73
2019-01-15T08:15:05.068Z,976.70
2019-01-15T08:16:05.230Z,976.74
2019-01-15T08:17:05.741Z,976.77
2019-01-15T08:18:05.558Z,976.73
2019-01-15T08:19:04.533Z,976.64
2019-01-15T08:20:04.629Z,976.77
2019-01-15T08:21:04.687Z,976.83
2019-01-15T08:22:04.857Z,976.88
2019-01-15T08:23:04.948Z,976.80
2019-01-15T08:24:04.819Z,976.69
2019-01-15T08:25:04.945Z,976.82
2019-01-15T08:26:05.049Z,976.82
2019-01-15T08:27:05.062Z,976.88
2019-01-15T08:28:05.117Z,976.74
2019-01-15T08:29:09.523Z,976.90
2019-01-15T08:30:04.941Z,976.90
2019-01-15T08:31:04.932Z,976.87
2019-01-15T08:32:05.021Z,976.96
2019-01-15T08:33:04.756Z,976.96
2019-01-15T08:34:04.946Z,976.84
2019-01-15T08:35:04.936Z,976.93
2019-01-15T08:36:04.954Z,976.84
2019-01-15T08:37:05.105Z,976.98
2019-01-15T08:38:05.295Z,976.93
2019-01-15T08:39:05.269Z,976.93
2019-01-15T08:40:05.512Z,976.95
2019-01-15T08:41:04.575Z,976.98
2019-01-15T08:42:05.168Z,976.90
2019-01-15T08:43:04.639Z,976.92
2019-01-15T08:44:04.718Z,977.01
2019-01-15T08:45:05.425Z,976.92
2019-01-15T08:46:04.912Z,976.84
2019-01-15T08:47:05.262Z,976.89
2019-01-15T08:48:05.102Z,976.89
2019-01-15T08:49:10.035Z,976.86
2019-01-15T08:50:05.554Z,976.92
2019-01-15T08:51:04.570Z,976.81
2019-01-15T08:52:04.590Z,976.89
2019-01-15T08:53:05.219Z,976.75
2019-01-15T08:54:05.389Z,976.78
2019-01-15T08:55:05.230Z,976.68
2019-01-15T08:56:04.748Z,976.80
2019-01-15T08:57:05.285Z,976.75
2019-01-15T08:58:04.600Z,976.73
2019-01-15T08:59:04.858Z,976.80
2019-01-15T09:00:04.839Z,976.73
2019-01-15T09:01:05.315Z,976.73
2019-01-15T09:02:05.358Z,976.67
2019-01-15T09:03:05.574Z,976.77
2019-01-15T09:04:04.566Z,976.85
2019-01-15T09:05:04.713Z,976.85
2019-01-15T09:06:05.276Z,976.88
2019-01-15T09:07:05.258Z,976.74
2019-01-15T09:08:05.294Z,976.82
2019-01-15T09:09:05.606Z,976.72
2019-01-15T09:10:05.110Z,976.77
2019-01-15T09:11:05.108Z,976.79
2019-01-15T09:12:05.436Z,976.72
2019-01-15T09:13:04.821Z,976.82
2019-01-15T09:14:04.984Z,976.85
2019-01-15T09:15:04.881Z,976.85
2019-01-15T09:16:05.329Z,976.79
2019-01-15T09:17:11.310Z,976.93
2019-01-15T09:18:05.108Z,976.79
2019-01-15T09:19:05.361Z,976.79
2019-01-15T09:20:05.278Z,976.66
2019-01-15T09:21:04.981Z,976.74
2019-01-15T09:22:05.212Z,976.76
2019-01-15T09:23:04.752Z,976.66
2019-01-15T09:24:04.948Z,976.71
2019-01-15T09:25:05.016Z,976.65
2019-01-15T09:26:06.394Z,976.71
2019-01-15T09:27:04.988Z,976.63
2019-01-15T09:28:05.026Z,976.54
2019-01-15T09:29:09.685Z,976.62
2019-01-15T09:30:05.107Z,976.51
2019-01-15T09:31:05.397Z,976.54
2019-01-15T09:32:05.364Z,976.75
2019-01-15T09:33:05.419Z,976.68
2019-01-15T09:34:04.551Z,976.59
2019-01-15T09:35:04.671Z,976.59
2019-01-15T09:36:05.002Z,976.68
2019-01-15T09:37:05.481Z,976.56
2019-01-15T09:38:04.632Z,976.67
2019-01-15T09:39:05.157Z,976.50
2019-01-15T09:40:04.899Z,976.39
2019-01-15T09:41:05.520Z,976.45
2019-01-15T09:42:05.417Z,976.48
2019-01-15T09:43:04.702Z,976.45
2019-01-15T09:44:04.834Z,976.50
2019-01-15T09:45:04.990Z,976.48
2019-01-15T09:46:05.064Z,976.39
2019-01-15T09:47:04.602Z,976.31
2019-01-15T09:48:04.677Z,976.36
2019-01-15T09:49:05.044Z,976.53
2019-01-15T09:50:05.254Z,976.36
2019-01-15T09:51:05.394Z,976.47
2019-01-15T09:52:04.784Z,976.36
2019-01-15T09:53:05.291Z,976.30
2019-01-15T09:54:05.466Z,976.36
2019-01-15T09:55:05.045Z,976.50
2019-01-15T09:56:05.232Z,976.36
2019-01-15T09:57:05.269Z,976.36
2019-01-15T09:58:05.483Z,976.36
2019-01-15T09:59:06.091Z,976.30
2019-01-15T10:00:05.233Z,976.38
2019-01-15T10:01:10.326Z,976.36
2019-01-15T10:02:04.735Z,976.30
2019-01-15T10:03:04.644Z,976.13
2019-01-15T10:04:05.237Z,976.30
2019-01-15T10:05:05.194Z,976.21
2019-01-15T10:06:05.333Z,976.18
2019-01-15T10:07:05.296Z,976.21
2019-01-15T10:08:05.421Z,976.30
2019-01-15T10:09:05.477Z,976.13
2019-01-15T10:10:04.724Z,976.18
2019-01-15T10:11:04.778Z,976.18
2019-01-15T10:12:04.696Z,976.13
2019-01-15T10:13:04.795Z,976.12
2019-01-15T10:14:04.795Z,976.18
2019-01-15T10:15:04.721Z,976.07
2019-01-15T10:16:04.759Z,976.07
2019-01-15T10:17:05.237Z,976.04
2019-01-15T10:18:05.198Z,976.10
2019-01-15T10:19:05.253Z,976.12
2019-01-15T10:20:05.349Z,976.04
2019-01-15T10:21:04.836Z,976.15
2019-01-15T10:22:04.477Z,976.07
2019-01-15T10:23:04.872Z,976.10
2019-01-15T10:24:04.552Z,975.90
2019-01-15T10:25:05.006Z,975.90
2019-01-15T10:26:04.613Z,975.76
2019-01-15T10:27:04.514Z,975.98
2019-01-15T10:28:04.731Z,975.85
2019-01-15T10:29:09.857Z,976.01
2019-01-15T10:30:05.225Z,976.01
2019-01-15T10:31:04.631Z,975.96
2019-01-15T10:32:04.453Z,975.87
2019-01-15T10:33:04.542Z,975.93
2019-01-15T10:34:05.046Z,975.96
2019-01-15T10:35:05.023Z,975.79
2019-01-15T10:36:05.202Z,975.98
2019-01-15T10:37:05.222Z,975.79
2019-01-15T10:38:04.927Z,975.87
2019-01-15T10:39:04.696Z,975.73
2019-01-15T10:40:04.803Z,975.81
2019-01-15T10:41:05.375Z,975.82
2019-01-15T10:42:04.816Z,975.73
2019-01-15T10:43:04.946Z,975.76
2019-01-15T10:44:05.016Z,975.70
2019-01-15T10:45:04.475Z,975.76
2019-01-15T10:46:04.563Z,975.70
2019-01-15T10:47:04.518Z,975.70
2019-01-15T10:48:05.007Z,975.59
2019-01-15T10:49:05.506Z,975.64
2019-01-15T10:50:05.578Z,975.73
2019-01-15T10:51:04.940Z,975.84
2019-01-15T10:52:04.510Z,975.64
2019-01-15T10:53:04.817Z,975.73
2019-01-15T10:54:05.288Z,975.67
2019-01-15T10:55:05.065Z,975.86
2019-01-15T10:56:05.124Z,975.58
2019-01-15T10:57:05.205Z,975.64
2019-01-15T10:58:05.294Z,975.61
2019-01-15T10:59:05.149Z,975.47
2019-01-15T11:00:05.377Z,975.44
2019-01-15T11:01:05.358Z,975.70
2019-01-15T11:02:04.515Z,975.47
2019-01-15T11:03:04.792Z,975.58
2019-01-15T11:04:04.970Z,975.47
2019-01-15T11:05:05.372Z,975.53
2019-01-15T11:06:05.361Z,975.50
2019-01-15T11:07:04.894Z,975.36
2019-01-15T11:08:05.400Z,975.61
2019-01-15T11:09:05.382Z,975.41
2019-01-15T11:10:05.328Z,975.52
2019-01-15T11:11:05.541Z,975.38
2019-01-15T11:12:04.825Z,975.38
2019-01-15T11:13:04.931Z,975.33
2019-01-15T11:14:04.991Z,975.30
2019-01-15T11:15:05.254Z,975.35
2019-01-15T11:16:05.138Z,975.35
2019-01-15T11:17:04.745Z,975.43
2019-01-15T11:18:04.852Z,975.35
2019-01-15T11:19:04.938Z,975.30
2019-01-15T11:20:05.426Z,975.27
2019-01-15T11:21:05.095Z,975.16
2019-01-15T11:22:05.074Z,975.30
2019-01-15T11:23:05.274Z,975.27
2019-01-15T11:24:05.498Z,975.30
2019-01-15T11:25:04.935Z,975.30
2019-01-15T11:26:04.997Z,975.27
2019-01-15T11:27:05.389Z,975.13
2019-01-15T11:28:04.693Z,975.18
2019-01-15T11:29:04.671Z,975.21
2019-01-15T11:30:04.688Z,975.34
2019-01-15T11:31:05.227Z,975.34
2019-01-15T11:32:04.778Z,975.29
2019-01-15T11:33:04.766Z,975.24
2019-01-15T11:34:04.830Z,975.21
2019-01-15T11:35:04.778Z,975.24
2019-01-15T11:36:04.817Z,975.39
2019-01-15T11:37:04.974Z,975.32
2019-01-15T11:38:04.810Z,975.34
2019-01-15T11:39:04.797Z,975.32
2019-01-15T11:40:04.887Z,975.34
2019-01-15T11:41:05.406Z,975.21
2019-01-15T11:42:05.294Z,975.39
2019-01-15T11:43:09.940Z,975.32
2019-01-15T11:44:05.458Z,975.29
2019-01-15T11:45:04.959Z,975.15
2019-01-15T11:46:04.930Z,975.23
2019-01-15T11:47:05.078Z,975.18
2019-01-15T11:48:04.623Z,975.09
2019-01-15T11:49:04.539Z,975.09
2019-01-15T11:50:04.689Z,974.98
2019-01-15T11:51:05.220Z,974.95
2019-01-15T11:52:04.568Z,974.95
2019-01-15T11:53:05.141Z,975.12
2019-01-15T11:54:05.159Z,975.03
2019-01-15T11:55:04.681Z,974.95
2019-01-15T11:56:04.815Z,974.93
2019-01-15T11:57:05.396Z,974.95
2019-01-15T11:58:04.657Z,974.90
2019-01-15T11:59:04.984Z,974.95
2019-01-15T12:00:04.948Z,974.97
2019-01-15T12:01:05.077Z,974.93
2019-01-15T12:02:05.392Z,975.09
2019-01-15T12:03:04.846Z,974.93
2019-01-15T12:04:05.401Z,975.03
2019-01-15T12:05:05.347Z,974.84
2019-01-15T12:06:04.962Z,974.87
2019-01-15T12:07:05.131Z,975.03
2019-01-15T12:08:04.809Z,974.87
2019-01-15T12:09:05.170Z,974.87
2019-01-15T12:10:05.287Z,974.89
2019-01-15T12:11:05.341Z,974.97
2019-01-15T12:12:04.736Z,974.97
2019-01-15T12:13:05.305Z,975.05
2019-01-15T12:14:05.316Z,974.95
2019-01-15T12:15:11.337Z,975.05
2019-01-15T12:16:04.933Z,975.03
2019-01-15T12:17:05.171Z,974.95
2019-01-15T12:18:04.807Z,975.03
2019-01-15T12:19:04.856Z,975.03
2019-01-15T12:20:05.123Z,974.95
2019-01-15T12:21:05.370Z,975.11
2019-01-15T12:22:04.950Z,975.05
2019-01-15T12:23:05.038Z,974.92
2019-01-15T12:24:05.677Z,975.11
2019-01-15T12:25:05.219Z,974.95
2019-01-15T12:26:04.551Z,975.00
2019-01-15T12:27:04.683Z,974.95
2019-01-15T12:28:05.346Z,974.97